Time;durP1;ratioP1;P1;durP2;ratioP2;P2;SDS_P1;SDS_P2;PMS_P1;PMS_P2;Temp;Humidity;BMP_temperature;BMP_pressure;BME280_temperature;BME280_humidity;BME280_pressure;Samples;Min_cycle;Max_cycle;Signal;HPM_P1;HPM_P2
2023/08/15 00:00:24;;;;;;;10.20;6.70;;;;;;;16.66;100.00;101625.77;107386;1256;63341;-76
2023/08/15 00:03:13;;;;;;;9.60;6.40;;;;;;;16.75;100.00;101625.17;107369;1245;58994;-73
2023/08/15 00:05:42;;;;;;;8.70;6.50;;;;;;;16.78;100.00;101626.55;107258;1248;62764;-72
2023/08/15 00:08:11;;;;;;;11.90;7.10;;;;;;;16.69;100.00;101627.59;107224;1248;70065;-72
2023/08/15 00:10:39;;;;;;;10.10;6.90;;;;;;;16.61;100.00;101628.91;107370;1248;70749;-72
2023/08/15 00:13:08;;;;;;;9.00;6.70;;;;;;;16.57;100.00;101632.13;107172;1254;267813;-72
2023/08/15 00:15:37;;;;;;;12.70;6.90;;;;;;;16.52;100.00;101633.92;107291;1249;58891;-74
2023/08/15 00:18:06;;;;;;;11.20;6.20;;;;;;;16.55;100.00;101632.82;107396;1250;62023;-74
2023/08/15 00:20:35;;;;;;;9.40;6.90;;;;;;;16.58;100.00;101629.58;107427;1245;63273;-73
2023/08/15 00:23:04;;;;;;;11.10;6.80;;;;;;;16.74;100.00;101630.14;107392;1245;60704;-73
2023/08/15 00:25:33;;;;;;;9.40;6.90;;;;;;;17.05;100.00;101625.30;107361;1245;69301;-73
2023/08/15 00:28:02;;;;;;;11.50;6.50;;;;;;;17.13;100.00;101622.69;107395;1255;63518;-73
2023/08/15 00:30:34;;;;;;;10.60;7.00;;;;;;;17.06;100.00;101624.16;107409;1244;58919;-75
2023/08/15 00:33:02;;;;;;;17.20;7.40;;;;;;;16.92;100.00;101624.12;107250;1248;60388;-75
2023/08/15 00:35:33;;;;;;;9.70;7.00;;;;;;;16.77;100.00;101624.28;107365;1245;72107;-72
2023/08/15 00:38:01;;;;;;;10.90;6.90;;;;;;;16.65;100.00;101628.11;107235;1248;71542;-75
2023/08/15 00:40:30;;;;;;;10.90;7.30;;;;;;;16.56;100.00;101627.09;107415;1256;59787;-75
2023/08/15 00:42:59;;;;;;;12.80;7.70;;;;;;;16.47;100.00;101622.89;107230;1256;71796;-72
2023/08/15 00:45:27;;;;;;;9.10;6.80;;;;;;;16.46;100.00;101622.28;107378;1252;62381;-77
2023/08/15 00:47:56;;;;;;;10.70;7.10;;;;;;;16.41;100.00;101620.43;107417;1245;59309;-74
2023/08/15 00:50:25;;;;;;;12.40;6.90;;;;;;;16.30;100.00;101619.53;107359;1246;62711;-74
2023/08/15 00:52:55;;;;;;;12.90;6.80;;;;;;;16.24;100.00;101622.48;107429;1245;61894;-75
2023/08/15 00:55:26;;;;;;;9.10;6.50;;;;;;;16.19;100.00;101624.48;107457;1245;69423;-74
2023/08/15 00:57:55;;;;;;;11.60;7.50;;;;;;;16.15;100.00;101624.98;107290;1256;63408;-74
2023/08/15 01:00:25;;;;;;;11.80;7.50;;;;;;;16.09;100.00;101627.20;107268;1253;58850;-73
2023/08/15 01:02:54;;;;;;;12.20;7.80;;;;;;;16.28;100.00;101622.51;107271;1255;57746;-72
2023/08/15 01:05:25;;;;;;;10.50;7.30;;;;;;;16.61;100.00;101623.27;107241;1256;63476;-73
2023/08/15 01:07:55;;;;;;;13.80;7.10;;;;;;;16.65;100.00;101619.98;107286;1245;61840;-72
2023/08/15 01:10:26;;;;;;;8.50;7.00;;;;;;;16.57;100.00;101618.58;107224;1247;69504;-72
2023/08/15 01:13:09;;;;;;;11.80;7.50;;;;;;;16.48;100.00;101622.13;107318;1245;73419;-72
2023/08/15 01:15:46;;;;;;;10.30;7.50;;;;;;;16.59;100.00;101623.17;107327;1245;63105;-74
2023/08/15 01:18:27;;;;;;;10.80;7.20;;;;;;;16.62;100.00;101624.98;107189;1250;58966;-73
2023/08/15 01:20:56;;;;;;;25.60;7.80;;;;;;;16.51;100.00;101624.64;107364;1249;72857;-74
2023/08/15 01:23:47;;;;;;;11.70;7.40;;;;;;;16.36;100.00;101627.30;107182;1256;61875;-74
2023/08/15 01:26:15;;;;;;;12.00;7.40;;;;;;;16.29;100.00;101629.67;107194;1256;69620;-73
2023/08/15 01:28:44;;;;;;;11.90;7.80;;;;;;;16.28;100.00;101625.69;107297;1255;63252;-73
2023/08/15 01:31:25;;;;;;;12.50;7.60;;;;;;;16.41;100.00;101624.98;107256;1243;59002;-74
2023/08/15 01:34:10;;;;;;;11.90;7.60;;;;;;;16.40;100.00;101622.36;107210;1248;61218;-73
2023/08/15 01:36:56;;;;;;;10.30;7.20;;;;;;;16.26;100.00;101617.80;107272;1255;63663;-74
2023/08/15 01:39:29;;;;;;;13.10;7.40;;;;;;;16.05;100.00;101618.74;107238;1245;60848;-73
2023/08/15 01:42:01;;;;;;;12.30;7.90;;;;;;;15.96;100.00;101616.18;107194;1255;59007;-73
2023/08/15 01:44:32;;;;;;;13.10;7.30;;;;;;;15.90;100.00;101615.59;107046;1245;73050;-79
2023/08/15 01:47:01;;;;;;;8.20;6.70;;;;;;;15.79;100.00;101615.42;107071;1252;58954;-73
2023/08/15 01:49:30;;;;;;;8.70;7.50;;;;;;;15.67;100.00;101619.41;107147;1247;59078;-73
2023/08/15 01:52:00;;;;;;;11.20;7.60;;;;;;;15.64;100.00;101626.48;107320;1245;63953;-73
2023/08/15 01:54:29;;;;;;;10.10;7.60;;;;;;;15.59;100.00;101625.23;107297;1244;70253;-73
2023/08/15 01:56:58;;;;;;;10.20;7.10;;;;;;;15.57;100.00;101627.64;107348;1245;59572;-74
2023/08/15 01:59:27;;;;;;;9.70;7.10;;;;;;;15.55;100.00;101627.69;107232;1244;73540;-75
2023/08/15 02:01:56;;;;;;;8.90;6.80;;;;;;;15.57;100.00;101629.23;107204;1246;62206;-72
2023/08/15 02:04:24;;;;;;;10.10;7.70;;;;;;;15.67;100.00;101621.87;107264;1253;60861;-72
2023/08/15 02:06:53;;;;;;;10.90;7.90;;;;;;;15.83;100.00;101619.02;107284;1256;63090;-72
2023/08/15 02:09:22;;;;;;;10.90;7.30;;;;;;;15.82;100.00;101621.71;107359;1244;69779;-72
2023/08/15 02:11:50;;;;;;;15.90;8.10;;;;;;;15.77;100.00;101618.98;107443;1244;70761;-72
2023/08/15 02:14:19;;;;;;;11.30;8.10;;;;;;;15.68;100.00;101620.39;107458;1245;65122;-73
2023/08/15 02:16:48;;;;;;;9.90;7.40;;;;;;;15.60;100.00;101615.38;107389;1245;59023;-72
2023/08/15 02:19:17;;;;;;;10.60;6.60;;;;;;;15.43;100.00;101612.62;107287;1252;57584;-74
2023/08/15 02:21:46;;;;;;;9.90;7.70;;;;;;;15.28;100.00;101618.75;107335;1252;72357;-73
2023/08/15 02:24:14;;;;;;;11.00;7.70;;;;;;;15.25;100.00;101618.27;107305;1245;71820;-74
2023/08/15 02:26:43;;;;;;;9.70;8.00;;;;;;;15.32;100.00;101618.21;107350;1247;59701;-73
2023/08/15 02:29:15;;;;;;;10.50;7.70;;;;;;;15.51;100.00;101613.45;107338;1246;63125;-74
2023/08/15 02:31:47;;;;;;;10.80;8.40;;;;;;;15.57;100.00;101618.79;107201;1254;62173;-74
2023/08/15 02:34:18;;;;;;;11.10;8.70;;;;;;;16.05;100.00;101622.09;107419;1254;58864;-73
2023/08/15 02:36:47;;;;;;;13.80;7.20;;;;;;;16.06;100.00;101621.02;107361;1245;72711;-74
2023/08/15 02:39:18;;;;;;;10.50;7.30;;;;;;;15.85;100.00;101624.80;107402;1245;72841;-74
2023/08/15 02:41:47;;;;;;;8.70;7.10;;;;;;;15.66;100.00;101625.30;107415;1252;60249;-75
2023/08/15 02:44:16;;;;;;;10.80;8.00;;;;;;;15.53;100.00;101620.77;107239;1246;62323;-76
2023/08/15 02:46:45;;;;;;;10.60;7.10;;;;;;;15.65;100.00;101623.59;107249;1244;62702;-76
2023/08/15 02:49:13;;;;;;;13.30;7.40;;;;;;;15.73;100.00;101625.58;107555;1246;59038;-73
2023/08/15 02:51:42;;;;;;;10.70;7.20;;;;;;;15.74;100.00;101626.05;108239;1246;61960;-73
2023/08/15 02:54:11;;;;;;;11.20;7.60;;;;;;;15.62;100.00;101630.64;108438;1244;71452;-73
2023/08/15 02:56:40;;;;;;;12.70;7.80;;;;;;;15.50;100.00;101633.55;107704;1245;69300;-74
2023/08/15 02:59:09;;;;;;;11.00;8.10;;;;;;;15.43;100.00;101630.75;107169;1245;73697;-74
2023/08/15 03:01:37;;;;;;;9.00;7.40;;;;;;;15.61;100.00;101630.53;107203;1253;62275;-74
2023/08/15 03:04:09;;;;;;;9.20;7.30;;;;;;;15.46;100.00;101629.59;107341;1246;58321;-73
2023/08/15 03:06:38;;;;;;;14.60;7.90;;;;;;;15.31;100.00;101628.84;107318;1256;62178;-73
2023/08/15 03:09:06;;;;;;;12.70;7.90;;;;;;;15.16;100.00;101631.41;107197;1254;72201;-74
2023/08/15 03:11:35;;;;;;;9.60;7.60;;;;;;;15.05;100.00;101631.92;107241;1246;60409;-74
2023/08/15 03:14:04;;;;;;;10.00;7.40;;;;;;;14.97;100.00;101633.21;107225;1256;62328;-74
2023/08/15 03:16:33;;;;;;;10.90;7.50;;;;;;;14.91;100.00;101633.84;107234;1246;58290;-74
2023/08/15 03:19:02;;;;;;;11.10;8.30;;;;;;;14.83;100.00;101636.20;107290;1244;59037;-76
2023/08/15 03:21:31;;;;;;;11.40;8.10;;;;;;;15.04;100.00;101634.45;107176;1255;62844;-75
2023/08/15 03:24:00;;;;;;;12.10;8.10;;;;;;;15.29;100.00;101637.98;107178;1245;61709;-76
2023/08/15 03:26:29;;;;;;;15.30;8.70;;;;;;;15.35;100.00;101640.66;107171;1256;70129;-74
2023/08/15 03:28:58;;;;;;;10.50;8.30;;;;;;;15.57;100.00;101642.84;107300;1244;73491;-76
2023/08/15 03:31:26;;;;;;;10.50;8.10;;;;;;;15.71;100.00;101645.96;107102;1247;63134;-75
2023/08/15 03:33:57;;;;;;;13.20;8.90;;;;;;;15.78;100.00;101645.18;107343;1250;60144;-75
2023/08/15 03:36:25;;;;;;;16.20;9.30;;;;;;;15.71;100.00;101648.62;107321;1246;72460;-76
2023/08/15 03:38:54;;;;;;;13.40;8.00;;;;;;;15.55;100.00;101650.34;107404;1243;72833;-74
2023/08/15 03:41:23;;;;;;;13.10;9.20;;;;;;;15.43;100.00;101651.83;107261;1245;70566;-74
2023/08/15 03:43:52;;;;;;;16.50;10.10;;;;;;;15.30;100.00;101648.73;107395;1255;63512;-73
2023/08/15 03:46:21;;;;;;;29.40;15.80;;;;;;;15.44;100.00;101648.73;107347;1244;59100;-74
2023/08/15 03:48:50;;;;;;;18.20;10.30;;;;;;;15.44;100.00;101648.75;107370;1246;60157;-75
2023/08/15 03:51:19;;;;;;;18.30;11.90;;;;;;;15.51;100.00;101650.98;107367;1255;64273;-74
2023/08/15 03:54:08;;;;;;;15.90;10.30;;;;;;;15.65;100.00;101650.48;107254;1255;61653;-74
2023/08/15 03:56:37;;;;;;;15.20;9.80;;;;;;;15.83;100.00;101650.80;107184;1256;59047;-75
2023/08/15 03:59:06;;;;;;;18.90;9.80;;;;;;;15.77;100.00;101649.88;107213;1245;62300;-75
2023/08/15 04:01:35;;;;;;;16.90;10.10;;;;;;;15.68;100.00;101654.05;107311;1255;63121;-75
2023/08/15 04:04:05;;;;;;;17.70;9.50;;;;;;;15.84;100.00;101651.24;107254;1250;57442;-75
2023/08/15 04:06:34;;;;;;;20.00;10.40;;;;;;;16.10;100.00;101650.88;107351;1255;63568;-74
2023/08/15 04:09:04;;;;;;;14.80;10.10;;;;;;;16.14;100.00;101651.73;107221;1251;72141;-74
2023/08/15 04:11:33;;;;;;;22.10;10.20;;;;;;;16.17;100.00;101650.28;107190;1245;70848;-75
2023/08/15 04:14:02;;;;;;;14.90;9.40;;;;;;;16.27;100.00;101651.61;107174;1245;73506;-75
2023/08/15 04:16:30;;;;;;;14.30;9.10;;;;;;;16.31;100.00;101650.40;107149;1252;62250;-75
2023/08/15 04:18:59;;;;;;;17.30;11.20;;;;;;;16.35;100.00;101651.83;107193;1246;59063;-76
2023/08/15 04:21:28;;;;;;;19.20;10.70;;;;;;;16.32;100.00;101652.42;107097;1246;62760;-74
2023/08/15 04:23:57;;;;;;;14.60;9.90;;;;;;;16.24;100.00;101658.36;107029;1247;71970;-72
2023/08/15 04:26:25;;;;;;;18.50;10.70;;;;;;;16.15;100.00;101661.94;107186;1247;70577;-72
2023/08/15 04:28:54;;;;;;;17.50;10.40;;;;;;;16.04;100.00;101659.08;107104;1245;74393;-73
2023/08/15 04:31:23;;;;;;;16.50;10.60;;;;;;;15.96;100.00;101656.80;107219;1254;58285;-73
2023/08/15 04:33:52;;;;;;;15.50;10.10;;;;;;;15.91;100.00;101657.84;107117;1248;61129;-74
2023/08/15 04:36:21;;;;;;;16.30;11.30;;;;;;;15.95;100.00;101665.30;107194;1246;73152;-72
2023/08/15 04:38:50;;;;;;;20.80;10.40;;;;;;;16.01;100.00;101666.73;107162;1256;72479;-75
2023/08/15 04:41:19;;;;;;;22.00;11.10;;;;;;;16.06;100.00;101665.79;107120;1255;60499;-73
2023/08/15 04:43:48;;;;;;;21.80;10.80;;;;;;;16.11;100.00;101669.09;107069;1246;63623;-77
2023/08/15 04:46:17;;;;;;;17.10;10.60;;;;;;;16.16;100.00;101673.79;107296;1244;61907;-76
2023/08/15 04:48:46;;;;;;;17.40;10.80;;;;;;;16.23;100.00;101675.66;107198;1243;62065;-76
2023/08/15 04:51:14;;;;;;;17.30;10.40;;;;;;;16.28;100.00;101675.42;107225;1246;73963;-79
2023/08/15 04:53:44;;;;;;;29.60;13.00;;;;;;;16.32;100.00;101678.80;107240;1245;62436;-79
2023/08/15 04:56:13;;;;;;;20.10;10.90;;;;;;;16.41;100.00;101681.20;107243;1256;60172;-78
2023/08/15 04:58:42;;;;;;;18.70;11.10;;;;;;;16.47;100.00;101681.86;107190;1248;72803;-81
2023/08/15 05:01:10;;;;;;;23.90;12.20;;;;;;;16.51;100.00;101676.22;107234;1256;63315;-78
2023/08/15 05:03:40;;;;;;;22.10;12.40;;;;;;;16.61;100.00;101677.97;107355;1244;59085;-76
2023/08/15 05:06:09;;;;;;;18.30;11.20;;;;;;;16.91;100.00;101677.50;107277;1246;61977;-78
2023/08/15 05:08:38;;;;;;;19.60;12.40;;;;;;;17.19;100.00;101677.05;107195;1251;61501;-78
2023/08/15 05:11:08;;;;;;;21.50;11.50;;;;;;;17.48;100.00;101672.97;107242;1246;70342;-76
2023/08/15 05:13:37;;;;;;;16.40;11.30;;;;;;;17.62;100.00;101669.30;107276;1253;63400;-77
2023/08/15 05:16:06;;;;;;;17.90;11.50;;;;;;;17.82;100.00;101667.94;107139;1248;58989;-74
2023/08/15 05:18:35;;;;;;;15.70;11.20;;;;;;;17.91;100.00;101670.48;107185;1251;60421;-74
2023/08/15 05:21:05;;;;;;;14.50;11.40;;;;;;;18.10;100.00;101668.63;107418;1245;63155;-77
2023/08/15 05:23:35;;;;;;;18.50;11.30;;;;;;;18.25;100.00;101664.60;107913;1245;61264;-75
2023/08/15 05:26:04;;;;;;;20.70;10.60;;;;;;;18.35;100.00;101669.86;107666;1244;70452;-75
2023/08/15 05:28:33;;;;;;;14.40;10.00;;;;;;;18.44;100.00;101670.27;107795;1256;62333;-82
2023/08/15 05:31:02;;;;;;;23.30;10.60;;;;;;;18.55;100.00;101673.77;107344;1244;58911;-79
2023/08/15 05:33:31;;;;;;;24.70;11.60;;;;;;;18.63;100.00;101679.22;107352;1244;57467;-75
2023/08/15 05:36:00;;;;;;;20.40;11.30;;;;;;;18.69;100.00;101679.55;107249;1245;62988;-74
2023/08/15 05:38:30;;;;;;;21.50;10.10;;;;;;;18.76;100.00;101680.96;107235;1246;61881;-76
2023/08/15 05:40:59;;;;;;;15.70;9.70;;;;;;;18.84;100.00;101682.18;107301;1245;59958;-78
2023/08/15 05:43:28;;;;;;;17.90;9.90;;;;;;;18.96;100.00;101686.92;107277;1246;63255;-75
2023/08/15 05:45:57;;;;;;;15.20;10.50;;;;;;;19.08;100.00;101687.75;107159;1249;62887;-76
2023/08/15 05:48:26;;;;;;;17.20;9.00;;;;;;;19.20;100.00;101692.46;107266;1244;60253;-77
2023/08/15 05:50:55;;;;;;;17.20;10.10;;;;;;;19.30;100.00;101693.63;107380;1251;71689;-77
2023/08/15 05:53:24;;;;;;;14.10;9.60;;;;;;;19.44;100.00;101689.49;109591;1243;71265;-74
2023/08/15 05:55:52;;;;;;;17.60;10.70;;;;;;;19.67;100.00;101687.02;109532;1244;70799;-76
2023/08/15 05:58:21;;;;;;;14.80;9.10;;;;;;;19.85;100.00;101691.11;109620;1242;63877;-76
2023/08/15 06:00:54;;;;;;;14.20;9.70;;;;;;;20.02;100.00;101684.84;109643;1241;58949;-76
2023/08/15 06:03:23;;;;;;;;;;;;;;;20.18;100.00;101681.50;109635;1242;57678;-75
2023/08/15 06:06:11;;;;;;;14.20;9.70;;;;;;;20.37;100.00;101677.28;109644;1243;73761;-74
2023/08/15 06:08:40;;;;;;;18.90;9.30;;;;;;;20.55;100.00;101681.58;109697;1242;62505;-72
2023/08/15 06:11:09;;;;;;;14.80;9.80;;;;;;;20.73;99.66;101683.83;109655;1241;59082;-76
2023/08/15 06:13:38;;;;;;;19.40;9.50;;;;;;;20.91;99.59;101679.52;109650;1243;63448;-76
2023/08/15 06:16:07;;;;;;;18.10;8.50;;;;;;;21.11;98.98;101676.30;109490;1243;57149;-82
2023/08/15 06:18:38;;;;;;;16.80;8.60;;;;;;;21.29;98.19;101678.37;109687;1241;57485;-73
2023/08/15 06:21:07;;;;;;;16.30;8.10;;;;;;;21.50;97.84;101683.34;109488;1243;73174;-75
2023/08/15 06:23:35;;;;;;;11.60;7.60;;;;;;;21.67;94.33;101688.55;109487;1243;72470;-75
2023/08/15 06:26:04;;;;;;;16.00;7.70;;;;;;;21.84;91.04;101689.64;109488;1243;62162;-75
2023/08/15 06:28:33;;;;;;;10.00;6.70;;;;;;;22.06;88.86;101693.17;109471;1243;65092;-74
2023/08/15 06:31:02;;;;;;;10.50;7.00;;;;;;;22.29;88.34;101699.48;109497;1245;57432;-80
2023/08/15 06:33:31;;;;;;;12.00;6.70;;;;;;;22.47;87.29;101699.36;109420;1247;57415;-75
2023/08/15 06:36:00;;;;;;;14.00;5.90;;;;;;;22.64;86.58;101703.05;109668;1241;73404;-75
2023/08/15 06:38:29;;;;;;;16.10;8.70;;;;;;;22.82;85.78;101708.89;109592;1241;73168;-73
2023/08/15 06:40:58;;;;;;;12.20;6.90;;;;;;;22.99;85.44;101713.48;109529;1242;60471;-74
2023/08/15 06:43:27;;;;;;;14.60;6.80;;;;;;;23.14;83.26;101714.39;109329;1243;62481;-74
2023/08/15 06:45:56;;;;;;;11.80;6.50;;;;;;;23.35;83.77;101717.27;109486;1244;60204;-75
2023/08/15 06:48:25;;;;;;;10.10;6.10;;;;;;;23.57;83.21;101718.52;109596;1242;57129;-75
2023/08/15 06:50:54;;;;;;;11.30;6.40;;;;;;;23.70;81.85;101714.27;109467;1245;63262;-75
2023/08/15 06:53:23;;;;;;;11.00;5.70;;;;;;;23.90;82.54;101718.02;109520;1243;72005;-73
2023/08/15 06:55:52;;;;;;;11.10;6.70;;;;;;;23.91;81.32;101716.98;109525;1243;60226;-71
2023/08/15 06:58:20;;;;;;;11.10;6.70;;;;;;;24.08;81.18;101720.05;109504;1242;72971;-73
2023/08/15 07:00:49;;;;;;;9.30;5.70;;;;;;;24.30;81.64;101721.11;109536;1244;57206;-73
2023/08/15 07:03:18;;;;;;;9.00;6.10;;;;;;;24.50;80.93;101721.83;109551;1244;57672;-74
2023/08/15 07:05:47;;;;;;;10.50;6.10;;;;;;;24.70;79.20;101717.34;109496;1242;73562;-73
2023/08/15 07:08:17;;;;;;;10.70;6.70;;;;;;;24.77;78.38;101718.61;109602;1242;61905;-74
2023/08/15 07:10:46;;;;;;;8.80;5.80;;;;;;;24.91;79.13;101719.02;109595;1243;59014;-73
2023/08/15 07:13:14;;;;;;;9.30;5.80;;;;;;;25.05;78.37;101714.45;109501;1244;74567;-74
2023/08/15 07:15:43;;;;;;;10.20;6.20;;;;;;;25.14;75.47;101706.11;109485;1245;57706;-74
2023/08/15 07:18:12;;;;;;;13.90;5.50;;;;;;;25.19;72.56;101702.02;109633;1243;57194;-71
2023/08/15 07:20:41;;;;;;;9.50;5.20;;;;;;;25.38;71.50;101704.02;109506;1241;65457;-72
2023/08/15 07:23:09;;;;;;;11.10;5.40;;;;;;;25.56;70.58;101701.25;109546;1241;72394;-72
2023/08/15 07:25:42;;;;;;;11.60;6.00;;;;;;;25.73;73.02;101699.45;109643;1241;60472;-72
2023/08/15 07:28:10;;;;;;;12.50;5.20;;;;;;;25.91;69.99;101699.83;109690;1241;65126;-71
2023/08/15 07:30:41;;;;;;;15.00;6.10;;;;;;;26.11;69.98;101697.58;109581;1244;57672;-72
2023/08/15 07:33:10;;;;;;;12.00;5.20;;;;;;;26.36;70.28;101693.39;109669;1242;57632;-72
2023/08/15 07:35:39;;;;;;;12.40;5.20;;;;;;;26.48;68.61;101692.54;109768;1241;62760;-72
2023/08/15 07:38:08;;;;;;;10.00;4.70;;;;;;;26.70;69.28;101691.29;109840;1241;63108;-71
2023/08/15 07:40:37;;;;;;;11.10;5.40;;;;;;;26.85;68.42;101689.79;109673;1241;61892;-71
2023/08/15 07:43:05;;;;;;;9.40;5.70;;;;;;;26.99;67.60;101688.51;109781;1242;74090;-72
2023/08/15 07:45:34;;;;;;;7.60;5.20;;;;;;;27.07;68.59;101690.89;109779;1244;57705;-71
2023/08/15 07:48:03;;;;;;;9.30;5.60;;;;;;;27.18;67.57;101687.71;109783;1243;57504;-72
2023/08/15 07:50:32;;;;;;;10.50;5.50;;;;;;;27.36;67.52;101683.83;109790;1243;71470;-71
2023/08/15 07:53:01;;;;;;;12.50;5.30;;;;;;;27.54;66.30;101684.15;109602;1245;61284;-76
2023/08/15 07:55:33;;;;;;;10.30;5.20;;;;;;;27.56;64.80;101685.16;109598;1242;59840;-72
2023/08/15 07:58:02;;;;;;;;;;;;;;;27.69;65.29;101682.83;109691;1244;62387;-72
2023/08/15 08:00:31;;;;;;;6.80;4.90;;;;;;;27.92;65.80;101677.84;109647;1244;57252;-74
2023/08/15 08:03:00;;;;;;;8.30;4.20;;;;;;;28.10;63.47;101676.85;109607;1244;57071;-73
2023/08/15 08:05:29;;;;;;;8.70;4.30;;;;;;;28.09;59.33;101666.07;109584;1243;74061;-74
2023/08/15 08:08:04;;;;;;;;;;;;;;;28.22;59.83;101662.80;109574;1244;60647;-75
2023/08/15 08:10:33;;;;;;;5.80;4.20;;;;;;;28.43;59.86;101667.02;109500;1243;69766;-74
2023/08/15 08:13:02;;;;;;;8.80;4.30;;;;;;;28.64;57.37;101662.11;109534;1243;73321;-73
2023/08/15 08:15:30;;;;;;;7.50;4.50;;;;;;;28.69;57.06;101662.43;109584;1243;57671;-73
2023/08/15 08:17:59;;;;;;;7.50;4.60;;;;;;;28.82;57.84;101656.05;109563;1244;57722;-73
2023/08/15 08:20:29;;;;;;;12.40;4.80;;;;;;;29.01;56.71;101658.61;109582;1244;63431;-72
2023/08/15 08:22:58;;;;;;;5.80;4.00;;;;;;;29.08;54.04;101660.05;109606;1243;72381;-74
2023/08/15 08:25:27;;;;;;;9.10;4.60;;;;;;;29.22;54.81;101660.06;109577;1243;69632;-73
2023/08/15 08:27:56;;;;;;;6.50;4.10;;;;;;;29.35;53.60;101653.94;109522;1244;73593;-73
2023/08/15 08:30:25;;;;;;;8.80;4.40;;;;;;;29.46;52.67;101653.58;109581;1244;60678;-73
2023/08/15 08:32:57;;;;;;;6.50;3.90;;;;;;;29.32;50.47;101659.57;109637;1244;57757;-74
2023/08/15 08:35:26;;;;;;;7.90;4.00;;;;;;;29.44;50.83;101659.13;109668;1243;62746;-73
2023/08/15 08:37:55;;;;;;;10.00;4.20;;;;;;;29.62;50.73;101650.63;109515;1243;72018;-74
2023/08/15 08:40:24;;;;;;;6.90;4.40;;;;;;;29.66;50.38;101650.73;109495;1243;61142;-73
2023/08/15 08:42:52;;;;;;;5.80;3.80;;;;;;;29.69;49.68;101643.08;109488;1243;73657;-73
2023/08/15 08:45:24;;;;;;;6.00;4.60;;;;;;;29.73;49.65;101644.33;109398;1247;57663;-72
2023/08/15 08:47:54;;;;;;;9.80;4.40;;;;;;;29.88;49.68;101647.14;109539;1243;62141;-72
2023/08/15 08:50:24;;;;;;;8.20;4.70;;;;;;;30.13;49.73;101649.48;109487;1245;63233;-72
2023/08/15 08:52:53;;;;;;;11.70;5.20;;;;;;;30.36;49.37;101642.44;109555;1245;60907;-73
2023/08/15 08:55:25;;;;;;;5.50;4.30;;;;;;;30.62;48.96;101638.21;109583;1243;60768;-74
2023/08/15 08:57:55;;;;;;;7.90;4.20;;;;;;;30.74;48.17;101636.30;109509;1245;62891;-73
2023/08/15 09:00:30;;;;;;;5.80;4.40;;;;;;;30.64;47.65;101639.18;109542;1244;57619;-74
2023/08/15 09:02:58;;;;;;;9.70;4.60;;;;;;;30.52;46.83;101634.23;109543;1244;57229;-74
2023/08/15 09:05:28;;;;;;;7.20;4.30;;;;;;;30.49;46.90;101627.70;109563;1242;74281;-73
2023/08/15 09:07:57;;;;;;;8.50;4.60;;;;;;;30.78;47.37;101627.75;109502;1243;72456;-72
2023/08/15 09:10:26;;;;;;;6.40;4.20;;;;;;;31.02;47.44;101624.30;109417;1244;61879;-75
2023/08/15 09:12:59;;;;;;;11.50;4.30;;;;;;;31.06;46.30;101619.24;109332;1245;63058;-75
2023/08/15 09:15:28;;;;;;;9.20;4.50;;;;;;;31.09;46.14;101617.46;109388;1246;57173;-81
2023/08/15 09:18:07;;;;;;;6.50;4.00;;;;;;;30.98;45.68;101614.30;109324;1244;57638;-78
2023/08/15 09:20:45;;;;;;;7.00;4.40;;;;;;;30.85;45.86;101613.11;109479;1242;62930;-77
2023/08/15 09:23:16;;;;;;;6.50;4.20;;;;;;;30.94;46.63;101609.70;109402;1244;61111;-77
2023/08/15 09:25:47;;;;;;;11.90;4.40;;;;;;;31.10;46.36;101604.02;109334;1241;70480;-78
2023/08/15 09:28:16;;;;;;;7.00;4.70;;;;;;;31.02;45.79;101602.67;109471;1242;62792;-77
2023/08/15 09:30:54;;;;;;;6.20;4.10;;;;;;;31.15;46.03;101602.66;109581;1244;57111;-78
2023/08/15 09:33:23;;;;;;;4.50;4.10;;;;;;;31.38;46.19;101597.70;109616;1243;57212;-76
2023/08/15 09:35:54;;;;;;;8.50;4.20;;;;;;;31.54;46.78;101594.92;109499;1243;62143;-79
2023/08/15 09:38:27;;;;;;;9.10;4.30;;;;;;;31.66;45.85;101598.41;109437;1243;63370;-77
2023/08/15 09:41:00;;;;;;;7.60;4.40;;;;;;;31.67;44.30;101594.70;109339;1243;59902;-77
2023/08/15 09:52:00;;;;;;;8.10;4.50;;;;;;;31.96;43.38;101589.86;104398;1281;599826;-77
2023/08/15 09:54:30;;;;;;;4.60;4.10;;;;;;;32.01;42.73;101584.33;107081;1258;59005;-78
2023/08/15 09:56:59;;;;;;;8.00;4.30;;;;;;;32.17;42.70;101577.95;107028;1249;59113;-78
2023/08/15 09:59:28;;;;;;;11.20;4.10;;;;;;;32.08;43.00;101580.81;107002;1259;60432;-77
2023/08/15 10:02:01;;;;;;;8.80;4.30;;;;;;;32.23;42.83;101576.85;107646;1249;61410;-75
2023/08/15 10:04:33;;;;;;;10.00;5.00;;;;;;;32.53;42.78;101574.83;107528;1249;260601;-73
2023/08/15 10:07:04;;;;;;;34.00;27.00;;;;;;;32.63;42.22;101567.95;107857;1245;64613;-76
2023/08/15 10:09:33;;;;;;;10.60;4.90;;;;;;;32.84;41.40;101565.22;107117;1248;59099;-74
2023/08/15 10:12:03;;;;;;;7.00;4.20;;;;;;;32.58;41.43;101564.06;106991;1244;59013;-75
2023/08/15 10:14:33;;;;;;;9.90;4.50;;;;;;;32.62;41.58;101563.10;107029;1252;60606;-74
2023/08/15 10:17:02;;;;;;;12.20;5.10;;;;;;;32.32;42.07;101566.64;107078;1245;62665;-74
2023/08/15 10:19:32;;;;;;;6.10;4.00;;;;;;;32.41;42.16;101564.92;106973;1249;59737;-76
2023/08/15 10:22:03;;;;;;;6.80;4.40;;;;;;;32.52;41.96;101559.48;106980;1244;62387;-75
2023/08/15 10:24:32;;;;;;;6.70;4.10;;;;;;;32.78;42.12;101559.95;106889;1248;60983;-77
2023/08/15 10:27:02;;;;;;;6.70;3.70;;;;;;;32.98;41.21;101557.83;107031;1248;60148;-77
2023/08/15 10:29:31;;;;;;;11.40;4.80;;;;;;;33.19;41.28;101558.33;107014;1255;63877;-77
2023/08/15 13:43:53;;;;;;;8.30;3.00;;;;;;;39.01;26.98;101419.11;104591;1283;600169;-76
2023/08/15 13:46:22;;;;;;;6.50;3.50;;;;;;;38.72;27.56;101412.17;106417;1258;59138;-75
2023/08/15 13:48:51;;;;;;;4.10;2.90;;;;;;;38.53;27.74;101410.80;106713;1251;59434;-75
2023/08/15 13:51:21;;;;;;;8.00;3.30;;;;;;;38.51;27.41;101409.95;106936;1248;61510;-75
2023/08/15 13:53:49;;;;;;;7.60;3.40;;;;;;;38.67;27.53;101404.98;106799;1250;72287;-76
2023/08/15 13:56:18;;;;;;;8.20;3.30;;;;;;;38.36;28.03;101401.55;106843;1250;62349;-79
2023/08/15 13:58:47;;;;;;;6.30;3.20;;;;;;;38.36;28.27;101394.13;106756;1248;64102;-80
2023/08/15 14:01:16;;;;;;;5.80;3.20;;;;;;;37.97;28.33;101391.35;107088;1248;60781;-77
2023/08/15 14:03:46;;;;;;;6.10;3.60;;;;;;;37.95;28.05;101386.79;107101;1247;62048;-73
2023/08/15 14:06:15;;;;;;;4.90;3.00;;;;;;;38.69;28.45;101392.33;107126;1259;60934;-73
2023/08/15 14:08:44;;;;;;;6.10;3.30;;;;;;;38.88;28.40;101392.83;107082;1248;61171;-71
2023/08/15 14:11:13;;;;;;;6.00;3.20;;;;;;;38.22;29.06;101389.38;107072;1248;59424;-73
2023/08/15 14:13:42;;;;;;;12.80;3.90;;;;;;;37.88;29.63;101388.45;107007;1259;63611;-71
2023/08/15 14:16:11;;;;;;;6.30;3.40;;;;;;;37.73;29.77;101388.77;107135;1248;59118;-75
2023/08/15 14:18:40;;;;;;;4.30;3.00;;;;;;;37.95;29.71;101388.99;107185;1258;57438;-71
2023/08/15 14:21:10;;;;;;;6.20;3.80;;;;;;;37.80;29.66;101392.67;106922;1249;62174;-70
2023/08/15 14:23:44;;;;;;;5.50;3.40;;;;;;;37.51;29.39;101391.03;107079;1247;71149;-69
2023/08/15 14:26:13;;;;;;;9.30;4.60;;;;;;;37.62;29.52;101390.46;107050;1245;60143;-71
2023/08/15 14:28:42;;;;;;;7.70;3.50;;;;;;;37.57;30.05;101390.41;106968;1247;64109;-70
2023/08/15 14:31:11;;;;;;;5.50;3.50;;;;;;;37.69;30.18;101391.27;107047;1248;57790;-70
2023/08/15 14:33:40;;;;;;;9.40;3.80;;;;;;;37.79;30.47;101384.13;107007;1248;61186;-71
2023/08/15 14:36:08;;;;;;;5.10;4.00;;;;;;;38.03;29.91;101383.19;107025;1258;72867;-73
2023/08/15 14:38:37;;;;;;;4.20;3.70;;;;;;;38.47;29.63;101382.66;107092;1246;64109;-73